sensor_id;sensor_type;location;lat;lon;timestamp;pressure;altitude;pressure_sealevel;temperature;humidity
71666;BME280;59503;53.486;10.196;2022-07-18T00:02:16;102545.34;;;12.73;86.86
71666;BME280;59503;53.486;10.196;2022-07-18T00:04:43;102552.72;;;12.72;87.64
71666;BME280;59503;53.486;10.196;2022-07-18T00:07:09;102555.44;;;12.72;88.14
71666;BME280;59503;53.486;10.196;2022-07-18T00:09:38;102548.41;;;12.71;88.14
71666;BME280;59503;53.486;10.196;2022-07-18T00:12:06;102549.50;;;12.70;88.75
71666;BME280;59503;53.486;10.196;2022-07-18T00:14:33;102544.38;;;12.69;88.42
71666;BME280;59503;53.486;10.196;2022-07-18T00:16:58;102530.81;;;12.60;88.78
71666;BME280;59503;53.486;10.196;2022-07-18T00:19:25;102531.28;;;12.62;88.78
71666;BME280;59503;53.486;10.196;2022-07-18T00:21:50;102532.44;;;12.61;89.04
71666;BME280;59503;53.486;10.196;2022-07-18T00:24:16;102527.97;;;12.57;89.11
71666;BME280;59503;53.486;10.196;2022-07-18T00:26:41;102534.69;;;12.59;88.73
71666;BME280;59503;53.486;10.196;2022-07-18T00:29:07;102540.13;;;12.59;89.16
71666;BME280;59503;53.486;10.196;2022-07-18T00:31:33;102530.56;;;12.53;89.74
71666;BME280;59503;53.486;10.196;2022-07-18T00:33:58;102523.63;;;12.56;89.99
71666;BME280;59503;53.486;10.196;2022-07-18T00:36:24;102523.00;;;12.50;89.87
71666;BME280;59503;53.486;10.196;2022-07-18T00:38:49;102524.16;;;12.49;89.82
71666;BME280;59503;53.486;10.196;2022-07-18T00:41:15;102525.75;;;12.50;90.00
71666;BME280;59503;53.486;10.196;2022-07-18T00:43:42;102513.09;;;12.45;89.64
71666;BME280;59503;53.486;10.196;2022-07-18T00:46:07;102535.06;;;12.49;89.75
71666;BME280;59503;53.486;10.196;2022-07-18T00:48:33;102526.41;;;12.47;89.87
71666;BME280;59503;53.486;10.196;2022-07-18T00:50:58;102520.81;;;12.43;89.60
71666;BME280;59503;53.486;10.196;2022-07-18T00:53:24;102522.75;;;12.43;89.85
71666;BME280;59503;53.486;10.196;2022-07-18T00:55:49;102520.81;;;12.43;89.75
71666;BME280;59503;53.486;10.196;2022-07-18T00:58:15;102521.97;;;12.42;89.54
71666;BME280;59503;53.486;10.196;2022-07-18T01:00:41;102525.00;;;12.41;89.48
71666;BME280;59503;53.486;10.196;2022-07-18T01:03:39;102526.31;;;12.35;89.37
71666;BME280;59503;53.486;10.196;2022-07-18T01:06:04;102523.34;;;12.28;89.66
71666;BME280;59503;53.486;10.196;2022-07-18T01:08:30;102535.97;;;12.32;89.80
71666;BME280;59503;53.486;10.196;2022-07-18T01:10:55;102535.03;;;12.28;89.87
71666;BME280;59503;53.486;10.196;2022-07-18T01:13:21;102531.03;;;12.26;89.72
71666;BME280;59503;53.486;10.196;2022-07-18T01:15:47;102528.16;;;12.22;90.36
71666;BME280;59503;53.486;10.196;2022-07-18T01:18:12;102529.94;;;12.18;90.52
71666;BME280;59503;53.486;10.196;2022-07-18T01:20:38;102520.50;;;12.16;90.27
71666;BME280;59503;53.486;10.196;2022-07-18T01:23:04;102523.44;;;12.11;90.58
71666;BME280;59503;53.486;10.196;2022-07-18T01:25:29;102529.53;;;12.08;90.79
71666;BME280;59503;53.486;10.196;2022-07-18T01:27:55;102529.41;;;12.04;91.16
71666;BME280;59503;53.486;10.196;2022-07-18T01:30:22;102537.25;;;12.06;90.93
71666;BME280;59503;53.486;10.196;2022-07-18T01:32:55;102521.41;;;11.99;91.15
71666;BME280;59503;53.486;10.196;2022-07-18T01:35:22;102526.84;;;11.99;91.35
71666;BME280;59503;53.486;10.196;2022-07-18T01:37:51;102530.53;;;11.95;91.47
71666;BME280;59503;53.486;10.196;2022-07-18T01:40:16;102526.88;;;11.91;91.70
71666;BME280;59503;53.486;10.196;2022-07-18T01:42:41;102524.94;;;11.91;91.84
71666;BME280;59503;53.486;10.196;2022-07-18T01:45:07;102534.25;;;11.90;92.01
71666;BME280;59503;53.486;10.196;2022-07-18T01:47:33;102527.41;;;11.84;92.08
71666;BME280;59503;53.486;10.196;2022-07-18T01:49:58;102514.06;;;11.83;92.39
71666;BME280;59503;53.486;10.196;2022-07-18T01:52:23;102514.25;;;11.78;92.48
71666;BME280;59503;53.486;10.196;2022-07-18T01:54:49;102508.81;;;11.78;92.85
71666;BME280;59503;53.486;10.196;2022-07-18T01:57:14;102505.47;;;11.72;92.91
71666;BME280;59503;53.486;10.196;2022-07-18T01:59:40;102503.88;;;11.71;92.84
71666;BME280;59503;53.486;10.196;2022-07-18T02:02:05;102519.25;;;11.76;93.10
71666;BME280;59503;53.486;10.196;2022-07-18T02:04:31;102510.94;;;11.72;93.27
71666;BME280;59503;53.486;10.196;2022-07-18T02:07:15;102515.56;;;11.72;93.13
71666;BME280;59503;53.486;10.196;2022-07-18T02:09:40;102513.19;;;11.70;93.75
71666;BME280;59503;53.486;10.196;2022-07-18T02:12:06;102522.59;;;11.73;93.72
71666;BME280;59503;53.486;10.196;2022-07-18T02:14:32;102503.72;;;11.68;93.68
71666;BME280;59503;53.486;10.196;2022-07-18T02:16:57;102515.41;;;11.68;93.66
71666;BME280;59503;53.486;10.196;2022-07-18T02:19:23;102506.31;;;11.64;94.12
71666;BME280;59503;53.486;10.196;2022-07-18T02:21:48;102504.38;;;11.65;93.99
71666;BME280;59503;53.486;10.196;2022-07-18T02:24:14;102500.88;;;11.64;93.97
71666;BME280;59503;53.486;10.196;2022-07-18T02:26:39;102504.19;;;11.61;94.20
71666;BME280;59503;53.486;10.196;2022-07-18T02:29:05;102498.59;;;11.58;94.09
71666;BME280;59503;53.486;10.196;2022-07-18T02:31:30;102498.59;;;11.58;94.60
71666;BME280;59503;53.486;10.196;2022-07-18T02:33:55;102492.38;;;11.57;94.89
71666;BME280;59503;53.486;10.196;2022-07-18T02:36:21;102495.09;;;11.57;95.09
71666;BME280;59503;53.486;10.196;2022-07-18T02:38:46;102499.88;;;11.60;95.98
71666;BME280;59503;53.486;10.196;2022-07-18T02:41:12;102495.88;;;11.66;97.04
71666;BME280;59503;53.486;10.196;2022-07-18T02:43:38;102503.06;;;11.79;97.66
71666;BME280;59503;53.486;10.196;2022-07-18T02:46:03;102495.16;;;11.86;98.78
71666;BME280;59503;53.486;10.196;2022-07-18T02:48:28;102498.03;;;11.90;97.95
71666;BME280;59503;53.486;10.196;2022-07-18T02:50:54;102497.34;;;11.93;97.78
71666;BME280;59503;53.486;10.196;2022-07-18T02:53:19;102496.72;;;11.96;97.31
71666;BME280;59503;53.486;10.196;2022-07-18T02:55:48;102495.41;;;12.02;98.35
71666;BME280;59503;53.486;10.196;2022-07-18T02:58:14;102507.91;;;12.03;97.68
71666;BME280;59503;53.486;10.196;2022-07-18T03:00:39;102496.81;;;12.08;98.28
71666;BME280;59503;53.486;10.196;2022-07-18T03:03:05;102513.44;;;12.15;98.68
71666;BME280;59503;53.486;10.196;2022-07-18T03:05:30;102513.44;;;12.15;98.23
71666;BME280;59503;53.486;10.196;2022-07-18T03:07:55;102505.00;;;12.08;97.89
71666;BME280;59503;53.486;10.196;2022-07-18T03:10:21;102514.44;;;12.10;97.79
71666;BME280;59503;53.486;10.196;2022-07-18T03:12:47;102502.91;;;12.05;97.93
71666;BME280;59503;53.486;10.196;2022-07-18T03:15:12;102503.25;;;12.03;97.40
71666;BME280;59503;53.486;10.196;2022-07-18T03:17:38;102504.38;;;12.02;97.82
71666;BME280;59503;53.486;10.196;2022-07-18T03:20:03;102497.84;;;11.95;97.68
71666;BME280;59503;53.486;10.196;2022-07-18T03:22:29;102500.09;;;11.93;97.22
71666;BME280;59503;53.486;10.196;2022-07-18T03:24:54;102503.66;;;11.85;97.34
71666;BME280;59503;53.486;10.196;2022-07-18T03:27:20;102505.91;;;11.83;97.62
71666;BME280;59503;53.486;10.196;2022-07-18T03:29:45;102509.75;;;11.82;98.53
71666;BME280;59503;53.486;10.196;2022-07-18T03:32:11;102504.63;;;11.80;98.03
71666;BME280;59503;53.486;10.196;2022-07-18T03:34:36;102506.25;;;11.73;98.06
71666;BME280;59503;53.486;10.196;2022-07-18T03:37:02;102503.84;;;11.80;98.42
71666;BME280;59503;53.486;10.196;2022-07-18T03:39:27;102497.44;;;11.84;99.48
71666;BME280;59503;53.486;10.196;2022-07-18T03:41:52;102498.50;;;11.92;98.89
71666;BME280;59503;53.486;10.196;2022-07-18T03:44:18;102498.66;;;11.95;98.65
71666;BME280;59503;53.486;10.196;2022-07-18T03:46:43;102495.78;;;11.92;97.41
71666;BME280;59503;53.486;10.196;2022-07-18T03:49:09;102493.16;;;12.04;98.32
71666;BME280;59503;53.486;10.196;2022-07-18T03:51:34;102495.03;;;12.12;97.68
71666;BME280;59503;53.486;10.196;2022-07-18T03:54:00;102480.09;;;12.18;97.63
71666;BME280;59503;53.486;10.196;2022-07-18T03:56:25;102470.09;;;12.22;97.28
71666;BME280;59503;53.486;10.196;2022-07-18T03:58:51;102471.72;;;12.23;96.97
71666;BME280;59503;53.486;10.196;2022-07-18T04:01:17;102478.09;;;12.27;96.75
71666;BME280;59503;53.486;10.196;2022-07-18T04:03:43;102476.84;;;12.24;96.51
71666;BME280;59503;53.486;10.196;2022-07-18T04:06:08;102482.28;;;12.24;96.46
71666;BME280;59503;53.486;10.196;2022-07-18T04:08:33;102485.47;;;12.26;95.97
71666;BME280;59503;53.486;10.196;2022-07-18T04:10:59;102497.00;;;12.32;96.00
71666;BME280;59503;53.486;10.196;2022-07-18T04:13:24;102492.16;;;12.37;95.54
71666;BME280;59503;53.486;10.196;2022-07-18T04:15:50;102489.09;;;12.39;95.28
71666;BME280;59503;53.486;10.196;2022-07-18T04:18:15;102496.59;;;12.42;94.91
71666;BME280;59503;53.486;10.196;2022-07-18T04:20:41;102492.75;;;12.43;94.62
71666;BME280;59503;53.486;10.196;2022-07-18T04:23:09;102503.91;;;12.50;94.44
71666;BME280;59503;53.486;10.196;2022-07-18T04:25:37;102507.59;;;12.54;94.08
71666;BME280;59503;53.486;10.196;2022-07-18T04:28:04;102503.53;;;12.60;94.74
71666;BME280;59503;53.486;10.196;2022-07-18T04:30:30;102494.03;;;12.66;94.06
71666;BME280;59503;53.486;10.196;2022-07-18T04:32:56;102485.31;;;12.73;93.39
71666;BME280;59503;53.486;10.196;2022-07-18T04:35:22;102479.97;;;12.76;93.30
71666;BME280;59503;53.486;10.196;2022-07-18T04:37:49;102476.25;;;12.81;92.91
71666;BME280;59503;53.486;10.196;2022-07-18T04:40:15;102479.31;;;12.79;93.03
71666;BME280;59503;53.486;10.196;2022-07-18T04:42:41;102486.34;;;12.80;92.88
71666;BME280;59503;53.486;10.196;2022-07-18T04:45:08;102479.31;;;12.79;92.80
71666;BME280;59503;53.486;10.196;2022-07-18T04:47:33;102475.34;;;12.77;92.98
71666;BME280;59503;53.486;10.196;2022-07-18T04:49:59;102476.78;;;12.74;93.09
71666;BME280;59503;53.486;10.196;2022-07-18T04:52:25;102477.72;;;12.78;92.84
71666;BME280;59503;53.486;10.196;2022-07-18T04:54:50;102464.72;;;12.75;92.63
71666;BME280;59503;53.486;10.196;2022-07-18T04:57:16;102465.47;;;12.84;92.43
71666;BME280;59503;53.486;10.196;2022-07-18T04:59:43;102474.91;;;12.87;92.41
71666;BME280;59503;53.486;10.196;2022-07-18T05:02:09;102472.97;;;12.87;92.25
71666;BME280;59503;53.486;10.196;2022-07-18T05:04:38;102474.03;;;12.95;91.96
71666;BME280;59503;53.486;10.196;2022-07-18T05:07:05;102467.22;;;13.01;91.76
71666;BME280;59503;53.486;10.196;2022-07-18T05:09:32;102472.75;;;13.13;91.29
71666;BME280;59503;53.486;10.196;2022-07-18T05:11:58;102476.34;;;13.25;91.22
71666;BME280;59503;53.486;10.196;2022-07-18T05:14:23;102474.75;;;13.36;90.86
71666;BME280;59503;53.486;10.196;2022-07-18T05:16:49;102480.25;;;13.48;89.53
71666;BME280;59503;53.486;10.196;2022-07-18T05:19:14;102479.94;;;13.62;88.49
71666;BME280;59503;53.486;10.196;2022-07-18T05:21:43;102469.69;;;13.71;88.23
71666;BME280;59503;53.486;10.196;2022-07-18T05:24:09;102469.56;;;13.80;87.67
71666;BME280;59503;53.486;10.196;2022-07-18T05:26:35;102466.84;;;13.92;87.07
71666;BME280;59503;53.486;10.196;2022-07-18T05:29:00;102472.44;;;14.07;87.19
71666;BME280;59503;53.486;10.196;2022-07-18T05:31:26;102464.47;;;14.14;86.13
71666;BME280;59503;53.486;10.196;2022-07-18T05:33:51;102469.72;;;14.31;86.05
71666;BME280;59503;53.486;10.196;2022-07-18T05:36:17;102467.84;;;14.47;85.77
71666;BME280;59503;53.486;10.196;2022-07-18T05:38:42;102470.53;;;14.59;84.63
71666;BME280;59503;53.486;10.196;2022-07-18T05:41:08;102479.72;;;14.79;84.20
71666;BME280;59503;53.486;10.196;2022-07-18T05:43:33;102472.25;;;14.91;83.46
71666;BME280;59503;53.486;10.196;2022-07-18T05:45:59;102471.75;;;15.02;82.72
71666;BME280;59503;53.486;10.196;2022-07-18T05:48:24;102481.97;;;15.17;81.69
71666;BME280;59503;53.486;10.196;2022-07-18T05:50:50;102485.47;;;15.17;81.64
71666;BME280;59503;53.486;10.196;2022-07-18T05:53:18;102483.28;;;15.23;81.74
71666;BME280;59503;53.486;10.196;2022-07-18T05:55:44;102477.44;;;15.24;81.97
71666;BME280;59503;53.486;10.196;2022-07-18T05:58:09;102473.13;;;15.23;81.58
71666;BME280;59503;53.486;10.196;2022-07-18T06:00:35;102487.44;;;15.32;81.48
71666;BME280;59503;53.486;10.196;2022-07-18T06:03:00;102482.88;;;15.36;81.53
71666;BME280;59503;53.486;10.196;2022-07-18T06:05:26;102483.78;;;15.40;81.56
71666;BME280;59503;53.486;10.196;2022-07-18T06:07:54;102495.56;;;15.56;80.99
71666;BME280;59503;53.486;10.196;2022-07-18T06:10:20;102487.69;;;15.70;80.41
71666;BME280;59503;53.486;10.196;2022-07-18T06:12:47;102491.50;;;15.81;79.95
71666;BME280;59503;53.486;10.196;2022-07-18T06:15:13;102486.72;;;15.78;78.21
71666;BME280;59503;53.486;10.196;2022-07-18T06:17:39;102485.28;;;15.84;78.15
71666;BME280;59503;53.486;10.196;2022-07-18T06:20:05;102490.19;;;15.91;78.88
71666;BME280;59503;53.486;10.196;2022-07-18T06:22:31;102490.06;;;16.03;77.99
71666;BME280;59503;53.486;10.196;2022-07-18T06:24:57;102483.38;;;16.19;77.19
71666;BME280;59503;53.486;10.196;2022-07-18T06:27:22;102475.03;;;16.32;76.52
71666;BME280;59503;53.486;10.196;2022-07-18T06:29:47;102465.41;;;16.57;76.54
71666;BME280;59503;53.486;10.196;2022-07-18T06:32:13;102479.75;;;16.85;75.22
71666;BME280;59503;53.486;10.196;2022-07-18T06:34:38;102483.72;;;17.06;74.66
71666;BME280;59503;53.486;10.196;2022-07-18T06:37:04;102470.94;;;17.36;73.58
71666;BME280;59503;53.486;10.196;2022-07-18T06:39:29;102466.88;;;17.50;72.83
71666;BME280;59503;53.486;10.196;2022-07-18T06:41:55;102461.31;;;17.69;72.04
71666;BME280;59503;53.486;10.196;2022-07-18T06:44:20;102473.50;;;17.94;71.83
71666;BME280;59503;53.486;10.196;2022-07-18T06:46:45;102480.56;;;18.17;71.46
71666;BME280;59503;53.486;10.196;2022-07-18T06:49:11;102481.41;;;18.47;70.56
71666;BME280;59503;53.486;10.196;2022-07-18T06:51:36;102472.81;;;18.86;69.58
71666;BME280;59503;53.486;10.196;2022-07-18T06:54:02;102474.44;;;19.23;67.32
71666;BME280;59503;53.486;10.196;2022-07-18T06:56:27;102470.09;;;19.62;66.16
71666;BME280;59503;53.486;10.196;2022-07-18T06:58:53;102466.28;;;19.81;64.65
71666;BME280;59503;53.486;10.196;2022-07-18T07:01:19;102461.50;;;19.71;65.42
71666;BME280;59503;53.486;10.196;2022-07-18T07:03:46;102464.00;;;19.90;66.47
71666;BME280;59503;53.486;10.196;2022-07-18T07:06:12;102458.06;;;19.88;64.92
71666;BME280;59503;53.486;10.196;2022-07-18T07:08:38;102462.09;;;19.94;65.80
71666;BME280;59503;53.486;10.196;2022-07-18T07:11:03;102460.28;;;20.16;67.89
71666;BME280;59503;53.486;10.196;2022-07-18T07:13:29;102458.69;;;20.18;66.39
71666;BME280;59503;53.486;10.196;2022-07-18T07:15:54;102457.56;;;20.23;65.34
71666;BME280;59503;53.486;10.196;2022-07-18T07:18:20;102457.63;;;20.37;64.29
71666;BME280;59503;53.486;10.196;2022-07-18T07:20:46;102469.53;;;20.51;64.03
71666;BME280;59503;53.486;10.196;2022-07-18T07:23:12;102465.22;;;20.57;62.70
71666;BME280;59503;53.486;10.196;2022-07-18T07:25:38;102448.34;;;20.76;63.77
71666;BME280;59503;53.486;10.196;2022-07-18T07:28:04;102450.03;;;21.09;62.74
71666;BME280;59503;53.486;10.196;2022-07-18T07:30:31;102448.88;;;21.31;61.62
71666;BME280;59503;53.486;10.196;2022-07-18T07:32:57;102447.31;;;21.69;59.68
71666;BME280;59503;53.486;10.196;2022-07-18T07:35:23;102449.28;;;22.07;58.56
71666;BME280;59503;53.486;10.196;2022-07-18T07:37:51;102457.06;;;22.51;57.46
71666;BME280;59503;53.486;10.196;2022-07-18T07:40:17;102444.31;;;22.74;56.08
71666;BME280;59503;53.486;10.196;2022-07-18T07:42:42;102455.31;;;22.92;53.68
71666;BME280;59503;53.486;10.196;2022-07-18T07:45:09;102449.75;;;22.95;55.57
71666;BME280;59503;53.486;10.196;2022-07-18T07:47:36;102461.84;;;23.29;53.72
71666;BME280;59503;53.486;10.196;2022-07-18T07:50:02;102455.44;;;23.40;52.39
71666;BME280;59503;53.486;10.196;2022-07-18T07:52:29;102440.78;;;23.35;52.06
71666;BME280;59503;53.486;10.196;2022-07-18T07:54:55;102441.31;;;23.68;52.91
71666;BME280;59503;53.486;10.196;2022-07-18T07:57:20;102444.66;;;23.93;52.53
71666;BME280;59503;53.486;10.196;2022-07-18T07:59:46;102447.84;;;23.91;49.78
71666;BME280;59503;53.486;10.196;2022-07-18T08:02:12;102437.66;;;23.78;51.80
71666;BME280;59503;53.486;10.196;2022-07-18T08:04:37;102440.28;;;23.99;52.26
71666;BME280;59503;53.486;10.196;2022-07-18T08:07:03;102434.56;;;23.69;50.04
71666;BME280;59503;53.486;10.196;2022-07-18T08:09:28;102434.72;;;23.99;51.45
71666;BME280;59503;53.486;10.196;2022-07-18T08:11:54;102424.94;;;24.21;49.62
71666;BME280;59503;53.486;10.196;2022-07-18T08:14:20;102424.88;;;24.58;48.10
71666;BME280;59503;53.486;10.196;2022-07-18T08:16:45;102405.44;;;24.88;47.68
71666;BME280;59503;53.486;10.196;2022-07-18T08:19:11;102409.03;;;25.12;48.38
71666;BME280;59503;53.486;10.196;2022-07-18T08:21:36;102410.22;;;25.37;46.38
71666;BME280;59503;53.486;10.196;2022-07-18T08:24:02;102407.03;;;25.12;46.75
71666;BME280;59503;53.486;10.196;2022-07-18T08:26:27;102413.50;;;24.79;46.33
71666;BME280;59503;53.486;10.196;2022-07-18T08:28:53;102407.16;;;24.45;46.44
71666;BME280;59503;53.486;10.196;2022-07-18T08:31:18;102404.34;;;24.79;47.35
71666;BME280;59503;53.486;10.196;2022-07-18T08:33:45;102411.03;;;25.11;45.00
71666;BME280;59503;53.486;10.196;2022-07-18T08:36:10;102400.44;;;25.52;45.72
71666;BME280;59503;53.486;10.196;2022-07-18T08:38:36;102419.78;;;25.83;45.07
71666;BME280;59503;53.486;10.196;2022-07-18T08:41:03;102410.00;;;26.17;42.35
71666;BME280;59503;53.486;10.196;2022-07-18T08:43:29;102389.31;;;26.54;39.63
71666;BME280;59503;53.486;10.196;2022-07-18T08:45:58;102394.03;;;26.92;39.24
71666;BME280;59503;53.486;10.196;2022-07-18T08:48:26;102384.63;;;27.03;38.77
71666;BME280;59503;53.486;10.196;2022-07-18T08:50:52;102391.50;;;26.62;38.36
71666;BME280;59503;53.486;10.196;2022-07-18T08:53:18;102398.84;;;26.37;40.43
71666;BME280;59503;53.486;10.196;2022-07-18T08:55:45;102387.63;;;26.21;40.46
71666;BME280;59503;53.486;10.196;2022-07-18T08:58:11;102384.66;;;26.28;42.33
71666;BME280;59503;53.486;10.196;2022-07-18T09:00:38;102369.16;;;26.27;40.76
71666;BME280;59503;53.486;10.196;2022-07-18T09:03:04;102367.53;;;26.10;41.43
71666;BME280;59503;53.486;10.196;2022-07-18T09:05:30;102362.16;;;26.38;39.08
71666;BME280;59503;53.486;10.196;2022-07-18T09:08:17;102360.78;;;26.82;39.67
71666;BME280;59503;53.486;10.196;2022-07-18T09:13:23;102362.53;;;27.24;37.99
71666;BME280;59503;53.486;10.196;2022-07-18T09:16:07;102362.25;;;27.67;36.53
71666;BME280;59503;53.486;10.196;2022-07-18T09:18:41;102365.03;;;27.38;37.27
71666;BME280;59503;53.486;10.196;2022-07-18T09:21:11;102360.81;;;27.46;36.33
71666;BME280;59503;53.486;10.196;2022-07-18T09:23:43;102364.50;;;27.43;37.98
71666;BME280;59503;53.486;10.196;2022-07-18T09:26:09;102352.06;;;27.60;37.52
71666;BME280;59503;53.486;10.196;2022-07-18T09:28:50;102345.88;;;27.81;35.60
71666;BME280;59503;53.486;10.196;2022-07-18T09:31:21;102356.34;;;28.47;37.30
71666;BME280;59503;53.486;10.196;2022-07-18T09:34:03;102355.91;;;27.95;37.22
71666;BME280;59503;53.486;10.196;2022-07-18T09:36:30;102356.06;;;28.17;36.23
71666;BME280;59503;53.486;10.196;2022-07-18T09:39:16;102358.84;;;27.75;36.27
71666;BME280;59503;53.486;10.196;2022-07-18T09:41:42;102363.97;;;28.34;35.88
71666;BME280;59503;53.486;10.196;2022-07-18T09:44:15;102365.34;;;28.92;35.56
71666;BME280;59503;53.486;10.196;2022-07-18T09:47:02;102373.53;;;29.12;33.10
71666;BME280;59503;53.486;10.196;2022-07-18T09:49:30;102378.78;;;29.10;32.71
71666;BME280;59503;53.486;10.196;2022-07-18T09:52:07;102383.59;;;29.22;33.21
71666;BME280;59503;53.486;10.196;2022-07-18T09:54:39;102380.28;;;28.36;35.34
71666;BME280;59503;53.486;10.196;2022-07-18T09:57:05;102380.25;;;28.89;34.06
71666;BME280;59503;53.486;10.196;2022-07-18T09:59:30;102373.34;;;29.41;32.81
71666;BME280;59503;53.486;10.196;2022-07-18T10:01:57;102365.91;;;29.93;32.96
71666;BME280;59503;53.486;10.196;2022-07-18T10:04:23;102383.44;;;30.06;30.81
71666;BME280;59503;53.486;10.196;2022-07-18T10:06:48;102377.34;;;29.99;31.79
71666;BME280;59503;53.486;10.196;2022-07-18T10:09:14;102384.09;;;30.10;32.22
71666;BME280;59503;53.486;10.196;2022-07-18T10:11:40;102387.84;;;30.07;30.95
71666;BME280;59503;53.486;10.196;2022-07-18T10:14:07;102385.41;;;30.18;32.42
71666;BME280;59503;53.486;10.196;2022-07-18T10:16:33;102384.63;;;30.18;32.13
71666;BME280;59503;53.486;10.196;2022-07-18T10:18:59;102385.63;;;30.55;30.75
71666;BME280;59503;53.486;10.196;2022-07-18T10:21:25;102385.41;;;30.40;30.67
71666;BME280;59503;53.486;10.196;2022-07-18T10:23:56;102378.56;;;29.98;30.73
71666;BME280;59503;53.486;10.196;2022-07-18T10:26:26;102378.78;;;29.69;32.86
71666;BME280;59503;53.486;10.196;2022-07-18T10:31:25;102364.81;;;29.44;33.24
71666;BME280;59503;53.486;10.196;2022-07-18T10:33:52;102362.78;;;28.98;34.44
71666;BME280;59503;53.486;10.196;2022-07-18T10:36:22;102359.97;;;28.98;34.31
71666;BME280;59503;53.486;10.196;2022-07-18T11:00:15;102343.00;;;29.73;31.70
71666;BME280;59503;53.486;10.196;2022-07-18T11:02:44;102356.78;;;30.02;33.48
71666;BME280;59503;53.486;10.196;2022-07-18T11:21:34;102314.88;;;30.69;32.18
71666;BME280;59503;53.486;10.196;2022-07-18T11:24:08;102317.44;;;29.93;31.42
71666;BME280;59503;53.486;10.196;2022-07-18T11:26:35;102293.56;;;29.88;31.58
71666;BME280;59503;53.486;10.196;2022-07-18T11:29:06;102302.59;;;29.49;32.59
71666;BME280;59503;53.486;10.196;2022-07-18T11:31:52;102296.09;;;29.18;33.22
71666;BME280;59503;53.486;10.196;2022-07-18T11:34:18;102294.47;;;28.83;33.83
71666;BME280;59503;53.486;10.196;2022-07-18T11:36:46;102288.75;;;28.74;35.13
71666;BME280;59503;53.486;10.196;2022-07-18T11:39:12;102297.78;;;29.03;36.65
71666;BME280;59503;53.486;10.196;2022-07-18T11:41:40;102283.88;;;29.12;33.88
71666;BME280;59503;53.486;10.196;2022-07-18T11:44:15;102281.88;;;29.00;35.18
71666;BME280;59503;53.486;10.196;2022-07-18T11:46:42;102277.00;;;28.91;35.44
71666;BME280;59503;53.486;10.196;2022-07-18T11:49:08;102272.59;;;29.03;32.66
71666;BME280;59503;53.486;10.196;2022-07-18T11:51:35;102267.28;;;28.46;33.71
71666;BME280;59503;53.486;10.196;2022-07-18T11:54:02;102274.31;;;28.75;34.28
71666;BME280;59503;53.486;10.196;2022-07-18T11:56:28;102267.09;;;29.12;32.14
71666;BME280;59503;53.486;10.196;2022-07-18T11:58:53;102277.50;;;28.99;32.96
71666;BME280;59503;53.486;10.196;2022-07-18T12:01:19;102275.03;;;29.13;31.97
71666;BME280;59503;53.486;10.196;2022-07-18T12:03:49;102276.50;;;29.05;29.81
71666;BME280;59503;53.486;10.196;2022-07-18T12:06:23;102259.75;;;29.49;30.28
71666;BME280;59503;53.486;10.196;2022-07-18T12:08:50;102255.06;;;30.10;30.46
71666;BME280;59503;53.486;10.196;2022-07-18T12:13:55;102248.66;;;30.98;29.09
71666;BME280;59503;53.486;10.196;2022-07-18T12:18:52;102234.28;;;30.87;30.40
71666;BME280;59503;53.486;10.196;2022-07-18T12:21:18;102230.41;;;30.85;30.07
71666;BME280;59503;53.486;10.196;2022-07-18T12:23:44;102222.59;;;31.07;29.70
71666;BME280;59503;53.486;10.196;2022-07-18T12:26:31;102229.38;;;30.61;29.36
71666;BME280;59503;53.486;10.196;2022-07-18T12:29:07;102223.78;;;30.70;28.65
71666;BME280;59503;53.486;10.196;2022-07-18T12:31:44;102227.75;;;31.08;29.15
71666;BME280;59503;53.486;10.196;2022-07-18T12:34:12;102215.38;;;32.20;27.32
71666;BME280;59503;53.486;10.196;2022-07-18T12:36:54;102224.56;;;31.88;25.98
71666;BME280;59503;53.486;10.196;2022-07-18T12:39:31;102224.94;;;32.13;27.62
71666;BME280;59503;53.486;10.196;2022-07-18T12:41:57;102226.78;;;32.82;25.39
71666;BME280;59503;53.486;10.196;2022-07-18T12:44:27;102223.84;;;33.38;24.44
71666;BME280;59503;53.486;10.196;2022-07-18T12:46:53;102226.53;;;34.34;23.59
71666;BME280;59503;53.486;10.196;2022-07-18T12:49:20;102222.41;;;34.50;23.26
71666;BME280;59503;53.486;10.196;2022-07-18T12:51:46;102217.97;;;34.63;23.38
71666;BME280;59503;53.486;10.196;2022-07-18T12:54:11;102214.66;;;34.65;23.70
71666;BME280;59503;53.486;10.196;2022-07-18T12:56:37;102210.34;;;35.10;22.24
71666;BME280;59503;53.486;10.196;2022-07-18T12:59:03;102206.09;;;35.45;23.04
71666;BME280;59503;53.486;10.196;2022-07-18T13:01:28;102206.06;;;35.40;22.33
71666;BME280;59503;53.486;10.196;2022-07-18T13:03:54;102204.34;;;35.48;20.77
71666;BME280;59503;53.486;10.196;2022-07-18T13:06:19;102204.78;;;35.97;21.95
71666;BME280;59503;53.486;10.196;2022-07-18T13:08:45;102193.41;;;36.29;22.20
71666;BME280;59503;53.486;10.196;2022-07-18T13:11:10;102200.97;;;36.37;20.34
71666;BME280;59503;53.486;10.196;2022-07-18T13:13:36;102196.88;;;34.99;21.91
71666;BME280;59503;53.486;10.196;2022-07-18T13:16:01;102186.50;;;34.90;22.99
71666;BME280;59503;53.486;10.196;2022-07-18T13:18:27;102185.88;;;35.27;22.46
71666;BME280;59503;53.486;10.196;2022-07-18T13:20:52;102171.41;;;35.45;22.96
71666;BME280;59503;53.486;10.196;2022-07-18T13:23:17;102164.28;;;35.03;23.41
71666;BME280;59503;53.486;10.196;2022-07-18T13:25:43;102183.97;;;35.44;22.02
71666;BME280;59503;53.486;10.196;2022-07-18T13:28:08;102169.63;;;35.22;23.03